createdAt,value
2022-08-01T00:00:53.198Z,100779.97
2022-08-01T00:03:20.596Z,100768.50
2022-08-01T00:05:48.731Z,100774.41
2022-08-01T00:08:16.087Z,100780.50
2022-08-01T00:10:43.338Z,100773.91
2022-08-01T00:13:10.718Z,100773.19
2022-08-01T00:15:40.989Z,100775.13
2022-08-01T00:18:19.201Z,100775.84
2022-08-01T00:20:46.551Z,100770.13
2022-08-01T00:23:13.950Z,100770.34
2022-08-01T00:25:41.264Z,100770.38
2022-08-01T00:28:09.639Z,100772.38
2022-08-01T00:30:37.390Z,100771.59
2022-08-01T00:33:04.806Z,100774.44
2022-08-01T00:35:32.122Z,100769.66
2022-08-01T00:37:59.541Z,100773.66
2022-08-01T00:40:26.931Z,100773.06
2022-08-01T00:42:54.190Z,100773.19
2022-08-01T00:45:21.565Z,100775.34
2022-08-01T00:47:48.902Z,100779.19
2022-08-01T00:50:22.829Z,100777.25
2022-08-01T00:52:52.634Z,100786.34
2022-08-01T00:55:21.283Z,100778.63
2022-08-01T00:58:02.812Z,100784.94
2022-08-01T01:00:52.588Z,100781.66
2022-08-01T01:03:29.403Z,100776.13
2022-08-01T01:06:20.409Z,100783.88
2022-08-01T01:09:06.763Z,100782.38
2022-08-01T01:11:58.842Z,100779.84
2022-08-01T01:14:39.731Z,100780.78
2022-08-01T01:17:08.833Z,100783.88
2022-08-01T01:19:43.169Z,100783.81
2022-08-01T01:22:21.168Z,100784.19
2022-08-01T01:25:18.707Z,100782.97
2022-08-01T01:28:34.930Z,100782.53
2022-08-01T01:31:04.429Z,100778.22
2022-08-01T01:33:34.309Z,100777.41
2022-08-01T01:36:11.857Z,100778.00
2022-08-01T01:38:43.021Z,100779.66
2022-08-01T01:41:16.727Z,100778.88
2022-08-01T01:43:45.990Z,100776.13
2022-08-01T01:46:16.541Z,100770.25
2022-08-01T01:48:46.104Z,100769.47
2022-08-01T01:51:16.163Z,100773.84
2022-08-01T01:53:46.142Z,100770.91
2022-08-01T01:56:17.345Z,100777.34
2022-08-01T01:58:46.711Z,100781.41
2022-08-01T02:01:15.047Z,100773.94
2022-08-01T02:03:44.634Z,100780.16
2022-08-01T02:06:17.974Z,100777.44
2022-08-01T02:08:46.961Z,100778.38
2022-08-01T02:11:20.583Z,100774.88
2022-08-01T02:13:59.675Z,100777.97
2022-08-01T02:16:32.641Z,100776.28
2022-08-01T02:19:03.335Z,100776.44
2022-08-01T02:21:36.063Z,100768.84
2022-08-01T02:24:14.646Z,100770.84
2022-08-01T02:26:50.394Z,100768.16
2022-08-01T02:29:28.330Z,100758.22
2022-08-01T02:31:56.107Z,100763.94
2022-08-01T02:34:29.090Z,100762.34
2022-08-01T02:36:57.431Z,100761.56
2022-08-01T02:39:27.218Z,100762.00
2022-08-01T02:42:00.201Z,100772.91
2022-08-01T02:44:33.950Z,100768.81
2022-08-01T02:47:03.461Z,100768.03
2022-08-01T02:49:43.634Z,100768.28
2022-08-01T02:52:16.803Z,100767.50
2022-08-01T02:54:49.656Z,100771.38
2022-08-01T02:57:19.388Z,100773.81
2022-08-01T02:59:50.482Z,100766.13
2022-08-01T03:02:19.461Z,100767.75
2022-08-01T03:04:56.793Z,100767.75
2022-08-01T03:07:25.083Z,100758.66
2022-08-01T03:10:02.909Z,100766.53
2022-08-01T03:12:31.955Z,100767.34
2022-08-01T03:15:01.753Z,100774.31
2022-08-01T03:17:30.447Z,100764.72
2022-08-01T03:20:00.690Z,100764.72
2022-08-01T03:22:30.174Z,100767.41
2022-08-01T03:25:00.202Z,100770.25
2022-08-01T03:27:27.775Z,100768.91
2022-08-01T03:29:59.871Z,100767.28
2022-08-01T03:32:29.262Z,100759.09
2022-08-01T03:34:58.479Z,100760.84
2022-08-01T03:37:33.538Z,100763.66
2022-08-01T03:40:10.836Z,100758.56
2022-08-01T03:42:51.552Z,100761.50
2022-08-01T03:45:33.548Z,100760.81
2022-08-01T03:48:04.459Z,100760.00
2022-08-01T03:50:34.893Z,100763.25
2022-08-01T03:53:05.178Z,100761.72
2022-08-01T03:55:34.113Z,100766.22
2022-08-01T03:58:05.111Z,100760.59
2022-08-01T04:00:36.397Z,100770.81
2022-08-01T04:03:04.251Z,100768.25
2022-08-01T04:05:32.407Z,100766.66
2022-08-01T04:08:00.677Z,100761.97
2022-08-01T04:10:28.092Z,100768.84
2022-08-01T04:12:55.518Z,100771.50
2022-08-01T04:15:22.850Z,100773.53
2022-08-01T04:17:50.324Z,100768.25
2022-08-01T04:20:18.595Z,100773.75
2022-08-01T04:22:45.960Z,100774.00
2022-08-01T04:25:29.151Z,100776.69
2022-08-01T04:27:58.243Z,100775.59
2022-08-01T04:30:30.777Z,100777.16
2022-08-01T04:33:06.087Z,100782.97
2022-08-01T04:36:01.942Z,100787.94
2022-08-01T04:38:28.295Z,100788.69
2022-08-01T04:40:57.306Z,100787.44
2022-08-01T04:43:24.844Z,100784.97
2022-08-01T04:45:52.719Z,100794.13
2022-08-01T04:48:22.949Z,100805.66
2022-08-01T04:50:51.385Z,100801.06
2022-08-01T04:53:23.075Z,100801.53
2022-08-01T04:55:50.733Z,100805.22
2022-08-01T04:58:19.586Z,100802.59
2022-08-01T05:00:47.633Z,100808.38
2022-08-01T05:03:15.243Z,100800.69
2022-08-01T05:05:42.673Z,100805.16
2022-08-01T05:08:11.065Z,100799.47
2022-08-01T05:10:38.477Z,100797.66
2022-08-01T05:13:07.507Z,100802.78
2022-08-01T05:15:38.083Z,100798.28
2022-08-01T05:18:05.909Z,100793.97
2022-08-01T05:20:36.250Z,100797.94
2022-08-01T05:23:05.093Z,100796.94
2022-08-01T05:25:49.678Z,100797.56
2022-08-01T05:28:20.952Z,100789.69
2022-08-01T05:30:48.328Z,100796.56
2022-08-01T05:33:15.700Z,100798.38
2022-08-01T05:35:48.643Z,100801.81
2022-08-01T05:38:17.590Z,100797.25
2022-08-01T05:40:45.023Z,100797.81
2022-08-01T05:43:12.376Z,100802.53
2022-08-01T05:45:39.678Z,100799.97
2022-08-01T05:48:07.153Z,100810.28
2022-08-01T05:50:34.905Z,100810.81
2022-08-01T05:53:02.319Z,100808.88
2022-08-01T05:55:29.951Z,100809.78
2022-08-01T05:57:57.450Z,100813.88
2022-08-01T06:00:24.844Z,100812.59
2022-08-01T06:02:52.150Z,100818.84
2022-08-01T06:05:19.728Z,100811.03
2022-08-01T06:07:47.094Z,100814.50
2022-08-01T06:10:14.468Z,100818.13
2022-08-01T06:12:41.992Z,100823.19
2022-08-01T06:15:09.690Z,100815.75
2022-08-01T06:17:37.072Z,100823.22
2022-08-01T06:20:08.032Z,100819.56
2022-08-01T06:22:35.679Z,100819.25
2022-08-01T06:25:03.452Z,100827.53
2022-08-01T06:27:30.804Z,100822.38
2022-08-01T06:29:58.351Z,100820.03
2022-08-01T06:32:27.998Z,100825.09
2022-08-01T06:34:57.121Z,100824.84
2022-08-01T06:37:24.587Z,100829.81
2022-08-01T06:39:51.926Z,100823.84
2022-08-01T06:42:19.268Z,100823.31
2022-08-01T06:44:46.727Z,100816.63
2022-08-01T06:47:14.125Z,100819.88
2022-08-01T06:49:41.469Z,100819.88
2022-08-01T06:52:09.946Z,100828.75
2022-08-01T06:54:37.470Z,100820.00
2022-08-01T06:57:09.690Z,100823.25
2022-08-01T06:59:37.044Z,100818.88
2022-08-01T07:02:04.859Z,100829.56
2022-08-01T07:04:32.428Z,100828.19
2022-08-01T07:07:02.872Z,100827.41
2022-08-01T07:09:30.397Z,100831.34
2022-08-01T07:11:57.826Z,100827.28
2022-08-01T07:14:25.450Z,100832.38
2022-08-01T07:16:52.942Z,100826.16
2022-08-01T07:19:20.423Z,100826.59
2022-08-01T07:21:49.347Z,100828.75
2022-08-01T07:24:19.506Z,100830.09
2022-08-01T07:26:53.984Z,100829.78
2022-08-01T07:29:24.015Z,100820.47
2022-08-01T07:31:56.254Z,100822.59
2022-08-01T07:34:24.134Z,100832.13
2022-08-01T07:36:52.442Z,100832.34
2022-08-01T07:39:20.759Z,100817.28
2022-08-01T07:42:06.740Z,100826.34
2022-08-01T07:44:36.746Z,100823.72
2022-08-01T07:47:05.591Z,100814.13
2022-08-01T07:49:37.743Z,100823.72
2022-08-01T07:52:07.750Z,100829.84
2022-08-01T07:54:35.618Z,100824.03
2022-08-01T07:57:05.348Z,100812.19
2022-08-01T07:59:32.822Z,100821.34
2022-08-01T08:02:00.813Z,100814.03
2022-08-01T08:04:29.705Z,100814.75
2022-08-01T08:06:57.012Z,100815.31
2022-08-01T08:09:25.049Z,100812.25
2022-08-01T08:11:52.476Z,100818.63
2022-08-01T08:14:20.269Z,100819.38
2022-08-01T08:16:48.259Z,100811.00
2022-08-01T08:19:15.699Z,100810.69
2022-08-01T08:21:43.345Z,100820.03
2022-08-01T08:24:20.881Z,100808.72
2022-08-01T08:26:57.374Z,100816.41
2022-08-01T08:29:25.814Z,100815.13
2022-08-01T08:31:54.376Z,100823.47
2022-08-01T08:34:22.787Z,100815.63
2022-08-01T08:36:50.412Z,100815.47
2022-08-01T08:39:19.726Z,100821.09
2022-08-01T08:41:49.367Z,100815.63
2022-08-01T08:44:19.126Z,100813.41
2022-08-01T08:46:52.294Z,100824.56
2022-08-01T08:49:22.556Z,100813.31
2022-08-01T08:51:52.096Z,100815.28
2022-08-01T08:54:31.377Z,100811.00
2022-08-01T08:57:01.213Z,100811.41
2022-08-01T08:59:29.583Z,100807.97
2022-08-01T09:01:58.460Z,100805.56
2022-08-01T09:04:27.338Z,100808.84
2022-08-01T09:06:55.300Z,100807.41
2022-08-01T09:09:24.603Z,100804.97
2022-08-01T09:11:56.895Z,100811.97
2022-08-01T09:14:30.845Z,100799.13
2022-08-01T09:17:02.637Z,100797.38
2022-08-01T09:19:48.787Z,100803.16
2022-08-01T09:22:19.412Z,100800.88
2022-08-01T09:25:02.205Z,100806.78
2022-08-01T09:27:30.536Z,100802.13
2022-08-01T09:30:11.336Z,100798.44
2022-08-01T09:32:55.490Z,100797.63
2022-08-01T09:35:30.034Z,100794.09
2022-08-01T09:38:16.960Z,100804.66
2022-08-01T09:40:58.164Z,100788.72
2022-08-01T09:43:35.283Z,100786.88
2022-08-01T09:46:14.224Z,100787.09
2022-08-01T09:49:03.568Z,100787.06
2022-08-01T09:51:59.558Z,100789.00
2022-08-01T09:54:34.543Z,100783.59
2022-08-01T09:57:13.786Z,100790.34
2022-08-01T09:59:58.217Z,100781.78
2022-08-01T10:02:31.037Z,100783.34
2022-08-01T10:05:07.415Z,100785.03
2022-08-01T10:07:42.999Z,100772.66
2022-08-01T10:10:15.120Z,100782.88
2022-08-01T10:12:45.135Z,100773.28
2022-08-01T10:15:17.982Z,100778.66
2022-08-01T10:17:57.396Z,100766.75
2022-08-01T10:20:30.713Z,100775.81
2022-08-01T10:23:06.311Z,100768.88
2022-08-01T10:25:46.741Z,100760.56
2022-08-01T10:28:21.319Z,100763.06
2022-08-01T10:30:50.018Z,100764.28
2022-08-01T10:33:51.365Z,100766.47
2022-08-01T10:36:10.702Z,100760.97
2022-08-01T10:38:38.615Z,100756.09
2022-08-01T10:41:08.877Z,100755.22
2022-08-01T10:43:37.003Z,100752.03
2022-08-01T10:46:05.669Z,100755.75
2022-08-01T10:48:50.373Z,100746.66
2022-08-01T10:51:21.399Z,100742.47
2022-08-01T10:53:56.057Z,100742.19
2022-08-01T10:56:27.216Z,100741.13
2022-08-01T10:59:06.406Z,100740.34
2022-08-01T11:01:37.357Z,100738.66
2022-08-01T11:04:13.899Z,100735.41
2022-08-01T11:06:53.390Z,100734.75
2022-08-01T11:09:40.599Z,100731.91
2022-08-01T11:12:14.464Z,100720.44
2022-08-01T11:15:00.218Z,100719.19
2022-08-01T11:17:42.115Z,100713.25
2022-08-01T11:20:15.537Z,100705.44
2022-08-01T11:23:17.374Z,100704.41
2022-08-01T11:26:05.708Z,100705.19
2022-08-01T11:28:35.788Z,100704.94
2022-08-01T11:31:11.173Z,100697.25
2022-08-01T11:33:42.410Z,100693.34
2022-08-01T11:36:14.372Z,100691.16
2022-08-01T11:39:14.118Z,100681.38
2022-08-01T11:41:44.262Z,100678.03
2022-08-01T11:44:13.444Z,100670.66
2022-08-01T11:46:51.609Z,100671.81
2022-08-01T11:49:29.874Z,100674.56
2022-08-01T11:52:07.588Z,100667.06
2022-08-01T11:54:39.356Z,100669.41
2022-08-01T11:57:13.959Z,100661.19
2022-08-01T12:00:02.672Z,100668.47
2022-08-01T12:02:39.691Z,100659.56
2022-08-01T12:05:11.655Z,100656.88
2022-08-01T12:07:42.278Z,100652.94
2022-08-01T12:10:14.005Z,100644.13
2022-08-01T12:12:52.376Z,100649.59
2022-08-01T12:15:22.862Z,100637.22
2022-08-01T12:17:57.504Z,100645.50
2022-08-01T12:20:29.998Z,100643.50
2022-08-01T12:23:01.206Z,100642.38
2022-08-01T12:25:28.693Z,100641.97
2022-08-01T12:28:00.044Z,100636.41
2022-08-01T12:30:28.003Z,100628.06
2022-08-01T12:32:55.895Z,100626.72
2022-08-01T12:35:26.541Z,100625.53
2022-08-01T12:37:56.766Z,100623.16
2022-08-01T12:40:25.379Z,100624.06
2022-08-01T12:42:55.690Z,100621.38
2022-08-01T12:45:27.679Z,100621.69
2022-08-01T12:47:56.097Z,100621.44
2022-08-01T12:50:26.442Z,100605.97
2022-08-01T12:52:54.064Z,100614.75
2022-08-01T12:55:34.359Z,100614.47
2022-08-01T12:58:31.944Z,100603.50
2022-08-01T13:01:11.544Z,100605.56
2022-08-01T13:03:39.575Z,100598.19
2022-08-01T13:06:13.448Z,100608.06
2022-08-01T13:08:41.348Z,100605.78
2022-08-01T13:11:14.814Z,100602.03
2022-08-01T13:13:49.407Z,100590.63
2022-08-01T13:16:34.382Z,100596.13
2022-08-01T13:19:07.245Z,100587.16
2022-08-01T13:21:54.197Z,100594.13
2022-08-01T13:24:28.826Z,100583.47
2022-08-01T13:27:00.504Z,100586.38
2022-08-01T13:29:35.663Z,100581.03
2022-08-01T13:32:30.079Z,100586.25
2022-08-01T13:35:09.901Z,100576.97
2022-08-01T13:37:39.145Z,100579.78
2022-08-01T13:40:08.550Z,100570.22
2022-08-01T13:42:36.685Z,100575.38
2022-08-01T13:45:14.325Z,100573.94
2022-08-01T13:48:12.487Z,100572.31
2022-08-01T13:50:33.132Z,100571.84
2022-08-01T13:53:03.211Z,100567.53
2022-08-01T13:55:34.665Z,100567.41
2022-08-01T13:58:03.631Z,100560.50
2022-08-01T14:00:31.280Z,100564.69
2022-08-01T14:02:58.663Z,100559.38
2022-08-01T14:05:25.997Z,100561.91
2022-08-01T14:07:56.759Z,100557.78
2022-08-01T14:10:25.266Z,100550.81
2022-08-01T14:12:52.631Z,100555.78
2022-08-01T14:15:38.712Z,100554.34
2022-08-01T14:18:09.641Z,100556.34
2022-08-01T14:20:38.724Z,100552.16
2022-08-01T14:23:10.131Z,100559.59
2022-08-01T14:26:03.095Z,100548.06
2022-08-01T14:28:29.624Z,100554.50
2022-08-01T14:30:58.363Z,100550.91
2022-08-01T14:33:26.134Z,100548.91
2022-08-01T14:36:05.203Z,100546.09
2022-08-01T14:38:34.340Z,100546.91
2022-08-01T14:41:04.430Z,100549.38
2022-08-01T14:43:35.610Z,100545.88
2022-08-01T14:46:05.276Z,100550.81
2022-08-01T14:48:33.327Z,100537.41
2022-08-01T14:51:04.279Z,100541.63
2022-08-01T14:53:34.453Z,100539.22
2022-08-01T14:56:05.070Z,100538.97
2022-08-01T14:58:36.578Z,100531.06
2022-08-01T15:01:08.175Z,100540.63
2022-08-01T15:03:36.473Z,100528.81
2022-08-01T15:06:04.408Z,100523.28
2022-08-01T15:08:33.424Z,100517.03
2022-08-01T15:11:02.654Z,100516.16
2022-08-01T15:13:30.267Z,100520.25
2022-08-01T15:16:00.178Z,100516.69
2022-08-01T15:18:29.080Z,100517.09
2022-08-01T15:20:58.192Z,100514.44
2022-08-01T15:23:25.608Z,100508.72
2022-08-01T15:25:52.963Z,100509.78
2022-08-01T15:28:20.938Z,100506.13
2022-08-01T15:30:48.281Z,100496.22
2022-08-01T15:33:15.830Z,100505.22
2022-08-01T15:35:43.615Z,100495.53
2022-08-01T15:38:11.020Z,100498.41
2022-08-01T15:40:38.555Z,100488.84
2022-08-01T15:43:06.162Z,100488.13
2022-08-01T15:45:49.401Z,100495.69
2022-08-01T15:48:17.309Z,100490.31
2022-08-01T15:50:44.755Z,100491.31
2022-08-01T15:53:12.274Z,100499.38
2022-08-01T15:55:40.040Z,100497.53
2022-08-01T15:58:11.208Z,100506.59
2022-08-01T16:00:40.163Z,100496.34
2022-08-01T16:03:08.546Z,100494.16
2022-08-01T16:05:43.155Z,100484.09
2022-08-01T16:08:12.693Z,100478.88
2022-08-01T16:10:40.340Z,100477.34
2022-08-01T16:13:08.299Z,100481.78
2022-08-01T16:15:37.686Z,100474.34
2022-08-01T16:18:07.315Z,100477.53
2022-08-01T16:20:35.363Z,100479.09
2022-08-01T16:23:02.683Z,100473.94
2022-08-01T16:25:30.208Z,100473.59
2022-08-01T16:27:57.535Z,100468.34
2022-08-01T16:30:24.920Z,100467.16
2022-08-01T16:33:00.310Z,100466.09
2022-08-01T16:35:36.323Z,100464.88
2022-08-01T16:38:07.132Z,100464.69
2022-08-01T16:40:46.249Z,100469.56
2022-08-01T16:43:15.883Z,100463.06
2022-08-01T16:45:43.735Z,100465.59
2022-08-01T16:48:23.408Z,100463.47
2022-08-01T16:50:50.842Z,100461.88
2022-08-01T16:53:22.608Z,100468.16
2022-08-01T16:55:50.987Z,100454.06
2022-08-01T16:58:23.517Z,100456.88
2022-08-01T17:00:57.495Z,100461.31
2022-08-01T17:03:46.521Z,100456.09
2022-08-01T17:06:13.693Z,100459.41
2022-08-01T17:08:46.947Z,100451.22
2022-08-01T17:11:15.513Z,100456.31
2022-08-01T17:13:46.313Z,100453.31
2022-08-01T17:16:13.770Z,100454.88
2022-08-01T17:18:41.329Z,100454.09
2022-08-01T17:21:09.098Z,100453.25
2022-08-01T17:23:36.546Z,100462.88
2022-08-01T17:26:04.147Z,100457.25
2022-08-01T17:28:31.556Z,100463.97
2022-08-01T17:30:59.293Z,100466.22
2022-08-01T17:33:45.626Z,100466.91
2022-08-01T17:36:17.609Z,100470.22
2022-08-01T17:38:44.927Z,100473.72
2022-08-01T17:41:15.535Z,100477.72
2022-08-01T17:43:42.895Z,100469.25
2022-08-01T17:46:10.322Z,100473.44
2022-08-01T17:48:37.671Z,100474.41
2022-08-01T17:51:05.087Z,100472.06
2022-08-01T17:53:34.872Z,100477.94
2022-08-01T17:56:05.607Z,100483.75
2022-08-01T17:58:50.822Z,100483.47
2022-08-01T18:01:21.135Z,100482.44
2022-08-01T18:03:49.785Z,100482.66
2022-08-01T18:06:19.423Z,100481.28
2022-08-01T18:08:47.896Z,100479.91
2022-08-01T18:11:17.178Z,100494.75
2022-08-01T18:13:45.258Z,100485.59
2022-08-01T18:16:13.537Z,100487.41
2022-08-01T18:18:43.409Z,100490.09
2022-08-01T18:21:12.174Z,100498.91
2022-08-01T18:23:39.486Z,100496.13
2022-08-01T18:26:09.590Z,100497.47
2022-08-01T18:28:42.024Z,100497.81
2022-08-01T18:31:16.570Z,100499.75
2022-08-01T18:33:44.158Z,100510.41
2022-08-01T18:36:17.810Z,100503.25
2022-08-01T18:39:00.245Z,100506.25
2022-08-01T18:41:27.620Z,100509.56
2022-08-01T18:44:05.810Z,100519.78
2022-08-01T18:46:39.748Z,100521.22
2022-08-01T18:49:09.164Z,100515.88
2022-08-01T18:51:43.013Z,100520.41
2022-08-01T18:54:12.167Z,100528.09
2022-08-01T18:56:39.635Z,100528.41
2022-08-01T18:59:06.971Z,100535.28
2022-08-01T19:01:34.665Z,100545.91
2022-08-01T19:04:02.556Z,100552.66
2022-08-01T19:06:29.895Z,100550.25
2022-08-01T19:09:02.084Z,100551.97
2022-08-01T19:11:34.280Z,100547.13
2022-08-01T19:14:03.033Z,100562.31
2022-08-01T19:16:31.138Z,100565.31
2022-08-01T19:18:58.559Z,100567.53
2022-08-01T19:21:26.138Z,100574.50
2022-08-01T19:24:12.467Z,100575.00
2022-08-01T19:26:45.650Z,100588.69
2022-08-01T19:29:22.258Z,100585.72
2022-08-01T19:31:51.376Z,100591.84
2022-08-01T19:34:26.591Z,100598.53
2022-08-01T19:36:58.159Z,100602.13
2022-08-01T19:39:29.579Z,100609.47
2022-08-01T19:41:59.804Z,100611.31
2022-08-01T19:44:28.867Z,100618.13
2022-08-01T19:46:56.413Z,100620.44
2022-08-01T19:49:24.098Z,100622.28
2022-08-01T19:52:03.518Z,100626.31
2022-08-01T19:54:37.115Z,100623.63
2022-08-01T19:57:07.675Z,100629.47
2022-08-01T19:59:36.266Z,100639.84
2022-08-01T20:02:05.615Z,100636.34
2022-08-01T20:04:34.355Z,100644.44
2022-08-01T20:07:03.958Z,100643.22
2022-08-01T20:09:31.767Z,100644.25
2022-08-01T20:11:59.189Z,100650.44
2022-08-01T20:14:27.308Z,100655.28
2022-08-01T20:16:55.702Z,100657.75
2022-08-01T20:19:24.652Z,100657.66
2022-08-01T20:22:05.913Z,100663.59
2022-08-01T20:24:43.464Z,100660.97
2022-08-01T20:27:13.920Z,100661.94
2022-08-01T20:29:45.802Z,100657.31
2022-08-01T20:32:14.926Z,100654.84
2022-08-01T20:34:43.562Z,100660.63
2022-08-01T20:37:12.721Z,100657.19
2022-08-01T20:39:44.170Z,100659.94
2022-08-01T20:42:14.927Z,100658.41
2022-08-01T20:44:45.147Z,100667.47
2022-08-01T20:47:12.993Z,100668.56
2022-08-01T20:49:40.770Z,100662.72
2022-08-01T20:52:12.174Z,100659.84
2022-08-01T20:54:41.780Z,100660.56
2022-08-01T20:57:16.964Z,100661.22
2022-08-01T20:59:56.564Z,100671.56
2022-08-01T21:02:41.385Z,100671.78
2022-08-01T21:05:11.062Z,100671.97
2022-08-01T21:07:51.721Z,100675.63
2022-08-01T21:10:22.290Z,100678.75
2022-08-01T21:13:16.671Z,100680.19
2022-08-01T21:16:22.140Z,100688.97
2022-08-01T21:19:17.251Z,100690.03
2022-08-01T21:21:49.409Z,100676.75
2022-08-01T21:24:18.582Z,100674.19
2022-08-01T21:26:46.567Z,100679.56
2022-08-01T21:29:15.310Z,100675.91
2022-08-01T21:31:42.690Z,100673.22
2022-08-01T21:34:12.154Z,100677.19
2022-08-01T21:36:42.496Z,100680.13
2022-08-01T21:39:10.289Z,100674.69
2022-08-01T21:41:56.742Z,100672.63
2022-08-01T21:44:29.042Z,100676.78
2022-08-01T21:47:00.907Z,100675.44
2022-08-01T21:49:28.345Z,100678.81
2022-08-01T21:52:08.809Z,100668.56
2022-08-01T21:55:10.876Z,100668.50
2022-08-01T21:58:07.761Z,100667.69
2022-08-01T22:00:36.756Z,100671.06
2022-08-01T22:03:23.182Z,100665.72
2022-08-01T22:05:52.215Z,100673.06
2022-08-01T22:08:39.772Z,100664.47
2022-08-01T22:11:08.550Z,100664.16
2022-08-01T22:13:36.063Z,100674.69
2022-08-01T22:16:05.490Z,100675.91
2022-08-01T22:18:35.665Z,100671.00
2022-08-01T22:21:04.074Z,100669.50
2022-08-01T22:23:36.206Z,100665.41
2022-08-01T22:26:07.092Z,100664.94
2022-08-01T22:28:36.003Z,100665.56
2022-08-01T22:31:04.410Z,100669.09
2022-08-01T22:33:34.705Z,100666.66
2022-08-01T22:36:03.365Z,100656.53
2022-08-01T22:38:30.710Z,100658.91
2022-08-01T22:41:14.248Z,100656.22
2022-08-01T22:44:00.853Z,100651.16
2022-08-01T22:46:32.625Z,100647.25
2022-08-01T22:49:02.214Z,100648.47
2022-08-01T22:51:55.061Z,100648.69
2022-08-01T22:54:30.155Z,100649.16
2022-08-01T22:57:07.558Z,100642.22
2022-08-01T22:59:46.352Z,100645.25
2022-08-01T23:02:16.273Z,100651.50
2022-08-01T23:04:47.112Z,100647.03
2022-08-01T23:07:20.196Z,100648.50
2022-08-01T23:09:53.772Z,100649.41
2022-08-01T23:12:27.551Z,100648.50
2022-08-01T23:14:56.959Z,100652.06
2022-08-01T23:17:28.807Z,100645.22
2022-08-01T23:20:02.478Z,100645.59
2022-08-01T23:22:32.409Z,100651.03
2022-08-01T23:25:03.898Z,100652.81
2022-08-01T23:27:54.110Z,100659.28
2022-08-01T23:30:25.604Z,100655.09
2022-08-01T23:32:53.611Z,100656.75
2022-08-01T23:35:21.097Z,100649.25
2022-08-01T23:37:50.929Z,100658.38
2022-08-01T23:40:19.530Z,100652.84
2022-08-01T23:42:46.966Z,100656.09
2022-08-01T23:45:14.619Z,100656.00
2022-08-01T23:47:42.251Z,100654.78
2022-08-01T23:50:09.842Z,100650.50
2022-08-01T23:52:41.969Z,100658.91
2022-08-01T23:55:15.977Z,100649.38
2022-08-01T23:57:43.558Z,100643.88
